Time;durP1;ratioP1;P1;durP2;ratioP2;P2;SDS_P1;SDS_P2;PMS_P1;PMS_P2;Temp;Humidity;BMP_temperature;BMP_pressure;BME280_temperature;BME280_humidity;BME280_pressure;Samples;Min_cycle;Max_cycle;Signal;HPM_P1;HPM_P2
2022/01/02 00:01:14;;;;;;;3.45;0.80;;;27.10;99.90;;;;;;5068447;28;20093;-65
2022/01/02 00:03:42;;;;;;;6.25;0.90;;;27.20;99.90;;;;;;5070226;28;20037;-66
2022/01/02 00:06:10;;;;;;;6.43;0.90;;;27.10;99.90;;;;;;5063020;28;20025;-66
2022/01/02 00:08:42;;;;;;;6.65;1.00;;;27.10;99.90;;;;;;5067921;28;20009;-66
2022/01/02 00:11:12;;;;;;;7.03;0.88;;;27.00;99.90;;;;;;5072341;28;20039;-66
2022/01/02 00:13:46;;;;;;;9.48;1.13;;;26.90;99.90;;;;;;5068689;28;20021;-65
2022/01/02 00:16:18;;;;;;;4.95;1.10;;;27.10;99.90;;;;;;5064972;28;20040;-65
2022/01/02 00:19:02;;;;;;;4.75;0.98;;;27.10;99.90;;;;;;5071023;28;20029;-64
2022/01/02 00:21:32;;;;;;;6.72;0.90;;;26.90;99.90;;;;;;5071708;28;20228;-65
2022/01/02 00:24:06;;;;;;;7.97;1.30;;;26.90;99.90;;;;;;5074337;28;20019;-66
2022/01/02 00:26:39;;;;;;;5.40;0.90;;;27.20;99.90;;;;;;5068219;28;20047;-66
2022/01/02 00:29:08;;;;;;;7.65;0.90;;;27.30;99.90;;;;;;5063684;28;20021;-66
2022/01/02 00:31:36;;;;;;;6.40;1.00;;;27.30;99.90;;;;;;5068243;28;20053;-66
2022/01/02 00:34:05;;;;;;;10.63;2.72;;;27.10;99.90;;;;;;5067658;28;20013;-66
2022/01/02 00:36:33;;;;;;;11.02;3.28;;;26.80;99.90;;;;;;5067102;28;20028;-65
2022/01/02 00:39:01;;;;;;;8.40;2.17;;;26.90;99.90;;;;;;5062659;28;20026;-65
2022/01/02 00:41:38;;;;;;;8.52;1.60;;;27.10;99.90;;;;;;5070256;28;20049;-66
2022/01/02 00:44:14;;;;;;;10.45;2.90;;;27.30;99.90;;;;;;5076500;28;20025;-66
2022/01/02 00:47:02;;;;;;;5.38;0.73;;;27.30;99.90;;;;;;5063146;28;20064;-66
2022/01/02 00:49:30;;;;;;;5.68;1.20;;;27.40;99.90;;;;;;5076167;28;20101;-65
2022/01/02 00:52:04;;;;;;;4.50;0.90;;;27.40;99.90;;;;;;5073812;28;20013;-66
2022/01/02 00:54:32;;;;;;;;;;;27.50;99.90;;;;;;5073578;28;20105;-66
2022/01/02 00:57:07;;;;;;;7.10;0.82;;;27.50;99.90;;;;;;5071799;28;19951;-65
2022/01/02 01:00:06;;;;;;;6.45;0.95;;;27.60;99.90;;;;;;5075256;28;20013;-67
2022/01/02 01:02:39;;;;;;;6.03;1.40;;;27.60;99.90;;;;;;5062443;28;20033;-66
2022/01/02 01:05:08;;;;;;;3.40;0.93;;;27.70;99.90;;;;;;5070426;28;20021;-66
2022/01/02 01:07:38;;;;;;;4.78;0.80;;;27.90;99.90;;;;;;5071606;28;20005;-66
2022/01/02 01:10:11;;;;;;;6.85;1.30;;;28.10;99.90;;;;;;5073007;28;20018;-66
2022/01/02 01:12:38;;;;;;;7.95;1.00;;;28.20;99.90;;;;;;5085573;28;20017;-66
2022/01/02 01:15:08;;;;;;;5.38;0.88;;;27.90;99.90;;;;;;5072361;28;20036;-66
2022/01/02 01:17:39;;;;;;;9.73;1.20;;;27.90;99.90;;;;;;5068023;28;20029;-66
2022/01/02 01:20:12;;;;;;;5.60;1.00;;;27.80;99.90;;;;;;5068674;28;20081;-66
2022/01/02 01:22:40;;;;;;;8.07;1.17;;;27.70;99.90;;;;;;5069684;28;20052;-66
2022/01/02 01:25:13;;;;;;;3.90;1.20;;;27.80;99.90;;;;;;5071243;28;20029;-66
2022/01/02 01:27:40;;;;;;;7.15;1.00;;;28.00;99.90;;;;;;5074627;28;20100;-65
2022/01/02 01:30:09;;;;;;;7.45;1.10;;;28.00;99.90;;;;;;5073319;28;20027;-65
2022/01/02 01:32:37;;;;;;;5.00;1.10;;;27.90;99.90;;;;;;5074685;28;20048;-65
2022/01/02 01:35:06;;;;;;;10.43;1.30;;;28.00;99.90;;;;;;5068227;28;20029;-66
2022/01/02 01:37:34;;;;;;;11.13;1.73;;;28.10;99.90;;;;;;5074680;28;20025;-67
2022/01/02 01:40:01;;;;;;;8.10;1.75;;;28.30;99.90;;;;;;5077741;28;20008;-65
2022/01/02 01:42:41;;;;;;;6.20;1.55;;;28.40;99.90;;;;;;5075433;28;20067;-65
2022/01/02 01:45:35;;;;;;;8.13;0.80;;;28.40;99.90;;;;;;5077519;28;20048;-65
2022/01/02 01:48:04;;;;;;;9.55;1.60;;;28.70;99.90;;;;;;5076792;28;20029;-65
2022/01/02 01:50:41;;;;;;;11.73;1.77;;;28.70;99.90;;;;;;5076786;28;20052;-64
2022/01/02 01:53:10;;;;;;;12.55;2.65;;;28.50;99.90;;;;;;5080226;28;20162;-67
2022/01/02 01:55:38;;;;;;;11.40;1.67;;;28.40;99.90;;;;;;5064319;28;20021;-66
2022/01/02 01:58:07;;;;;;;4.85;1.05;;;28.40;99.90;;;;;;5072756;28;20013;-65
2022/01/02 02:00:35;;;;;;;10.15;1.83;;;28.30;99.90;;;;;;5082224;28;20005;-65
2022/01/02 02:03:03;;;;;;;7.22;1.13;;;28.60;99.90;;;;;;5062959;28;20051;-68
2022/01/02 02:05:31;;;;;;;7.05;1.58;;;28.90;99.90;;;;;;5069241;28;20282;-66
2022/01/02 02:07:59;;;;;;;9.18;1.45;;;29.30;99.90;;;;;;5066712;28;20029;-67
2022/01/02 02:10:34;;;;;;;8.23;1.42;;;29.40;99.90;;;;;;5068945;28;20025;-67
2022/01/02 02:13:03;;;;;;;9.80;1.98;;;29.60;99.90;;;;;;5068248;28;20090;-65
2022/01/02 02:15:31;;;;;;;7.13;1.20;;;29.40;99.90;;;;;;5074653;28;20040;-66
2022/01/02 02:17:58;;;;;;;10.52;1.58;;;29.20;99.90;;;;;;5065317;28;20052;-66
2022/01/02 02:20:31;;;;;;;11.13;2.28;;;28.90;99.90;;;;;;5073605;28;20025;-67
2022/01/02 02:23:01;;;;;;;5.93;1.23;;;28.80;99.90;;;;;;5072502;28;20009;-65
2022/01/02 02:25:30;;;;;;;6.47;0.88;;;28.50;99.90;;;;;;5073774;28;20077;-65
2022/01/02 02:28:12;;;;;;;10.45;1.45;;;28.90;99.90;;;;;;5075432;28;20501;-66
2022/01/02 02:30:43;;;;;;;7.75;1.98;;;29.30;99.90;;;;;;5075738;28;20055;-65
2022/01/02 02:33:13;;;;;;;10.15;2.53;;;29.20;99.90;;;;;;5072298;28;20005;-65
2022/01/02 02:35:42;;;;;;;11.27;1.40;;;29.00;99.90;;;;;;5077763;28;20013;-65
2022/01/02 02:38:11;;;;;;;8.93;1.45;;;29.10;99.90;;;;;;5074125;28;20029;-68
2022/01/02 02:40:39;;;;;;;11.73;1.80;;;29.00;99.90;;;;;;5073297;28;20009;-66
2022/01/02 02:51:13;;;;;;;9.23;1.40;;;29.10;99.90;;;;;;5077405;28;20017;-66
2022/01/02 02:53:46;;;;;;;10.80;1.95;;;29.00;99.90;;;;;;5079278;28;20021;-65
2022/01/02 02:56:19;;;;;;;7.68;1.63;;;29.10;99.90;;;;;;5072501;28;20025;-66
2022/01/02 02:58:49;;;;;;;9.20;1.70;;;29.10;99.90;;;;;;5076728;28;20029;-66
2022/01/02 03:01:19;;;;;;;7.85;1.60;;;29.00;99.90;;;;;;5065996;28;20009;-66
2022/01/02 03:03:47;;;;;;;10.23;1.85;;;28.90;99.90;;;;;;5076817;28;20033;-66
2022/01/02 03:06:15;;;;;;;11.02;2.20;;;29.20;99.90;;;;;;5074695;28;20041;-66
2022/01/02 03:08:44;;;;;;;10.45;1.92;;;29.10;99.90;;;;;;5075565;28;20017;-66
2022/01/02 03:11:17;;;;;;;9.00;1.80;;;29.00;99.90;;;;;;5062996;28;20018;-66
2022/01/02 03:13:46;;;;;;;10.63;1.48;;;28.90;99.90;;;;;;5078956;28;20029;-65
2022/01/02 03:16:14;;;;;;;7.63;1.25;;;28.90;99.90;;;;;;5075666;28;20072;-67
2022/01/02 03:18:42;;;;;;;10.63;1.90;;;28.80;99.90;;;;;;5075737;28;20039;-65
2022/01/02 03:21:10;;;;;;;11.30;1.52;;;28.70;99.90;;;;;;5073252;28;20018;-67
2022/01/02 03:23:38;;;;;;;11.52;1.60;;;28.90;99.90;;;;;;5078788;28;20025;-67
2022/01/02 03:26:06;;;;;;;12.52;2.47;;;28.60;99.90;;;;;;5077065;28;20013;-66
2022/01/02 03:28:33;;;;;;;10.82;1.83;;;28.50;99.90;;;;;;5070055;28;20031;-67
2022/01/02 03:31:01;;;;;;;8.63;1.80;;;28.80;99.90;;;;;;5074882;28;20036;-66
2022/01/02 03:33:29;;;;;;;9.50;1.52;;;28.70;99.90;;;;;;5077464;28;20076;-66
2022/01/02 03:35:56;;;;;;;7.32;1.30;;;28.60;99.90;;;;;;5069459;28;20073;-66
2022/01/02 03:38:24;;;;;;;8.60;1.38;;;28.70;99.90;;;;;;5070343;28;20035;-66
2022/01/02 03:40:51;;;;;;;12.10;1.40;;;28.80;99.90;;;;;;5075085;28;20024;-67
2022/01/02 03:43:18;;;;;;;8.57;1.40;;;28.80;99.90;;;;;;5061435;28;20092;-66
2022/01/02 03:45:46;;;;;;;10.38;1.85;;;28.60;99.90;;;;;;5067540;28;20087;-66
2022/01/02 03:48:13;;;;;;;9.68;1.65;;;28.60;99.90;;;;;;5076575;28;20040;-66
2022/01/02 03:50:41;;;;;;;10.10;1.50;;;28.50;99.90;;;;;;5077744;28;20021;-65
2022/01/02 03:53:09;;;;;;;7.47;1.65;;;28.70;99.90;;;;;;5054958;28;20591;-68
2022/01/02 03:55:37;;;;;;;9.93;1.90;;;28.80;99.90;;;;;;5061906;28;20028;-68
2022/01/02 03:58:04;;;;;;;8.38;1.40;;;28.80;99.90;;;;;;5054841;28;20025;-73
2022/01/02 04:00:31;;;;;;;10.93;1.40;;;28.70;99.90;;;;;;5061011;28;20031;-67
2022/01/02 04:02:58;;;;;;;8.80;1.45;;;28.60;99.90;;;;;;5074630;28;20032;-66
2022/01/02 04:05:26;;;;;;;11.45;2.15;;;28.50;99.90;;;;;;5072797;28;20071;-66
2022/01/02 04:07:53;;;;;;;8.65;1.58;;;28.10;99.90;;;;;;5070285;28;20029;-67
2022/01/02 04:10:20;;;;;;;8.45;1.58;;;28.10;99.90;;;;;;5070952;28;20501;-67
2022/01/02 04:12:48;;;;;;;9.48;1.20;;;28.10;99.90;;;;;;5064608;28;20044;-66
2022/01/02 04:15:16;;;;;;;10.68;2.13;;;28.00;99.90;;;;;;5072757;28;20029;-67
2022/01/02 04:17:44;;;;;;;12.25;1.65;;;28.10;99.90;;;;;;5073767;28;20018;-66
2022/01/02 04:20:13;;;;;;;8.05;1.45;;;28.20;99.90;;;;;;5072652;28;20025;-66
2022/01/02 04:22:41;;;;;;;9.50;1.23;;;28.10;99.90;;;;;;5072391;28;20029;-66
2022/01/02 04:25:09;;;;;;;11.02;1.92;;;28.00;99.90;;;;;;5073295;28;20021;-67
2022/01/02 04:27:36;;;;;;;7.85;1.63;;;28.00;99.90;;;;;;5074771;28;20024;-66
2022/01/02 04:30:06;;;;;;;11.27;1.38;;;28.00;99.90;;;;;;5075376;28;20012;-66
2022/01/02 04:32:33;;;;;;;7.22;1.10;;;28.10;99.90;;;;;;5071718;28;20012;-67
2022/01/02 04:35:00;;;;;;;9.07;1.38;;;28.10;99.90;;;;;;5073874;28;20039;-65
2022/01/02 04:37:28;;;;;;;7.60;1.33;;;28.00;99.90;;;;;;5072195;28;20025;-66
2022/01/02 04:39:55;;;;;;;7.88;1.52;;;27.80;99.90;;;;;;5071456;28;20025;-67
2022/01/02 04:42:22;;;;;;;8.88;1.08;;;27.80;99.90;;;;;;5073216;28;20028;-67
2022/01/02 04:44:49;;;;;;;23.92;1.75;;;27.80;99.90;;;;;;5074006;28;20055;-66
2022/01/02 04:47:17;;;;;;;7.65;1.65;;;27.90;99.90;;;;;;5070411;28;20060;-66
2022/01/02 04:49:44;;;;;;;9.98;1.80;;;27.70;99.90;;;;;;5075376;28;20077;-66
2022/01/02 04:52:11;;;;;;;12.80;2.00;;;27.60;99.90;;;;;;5072917;28;20102;-66
2022/01/02 04:54:38;;;;;;;9.40;1.58;;;27.70;99.90;;;;;;5070766;28;20037;-67
2022/01/02 04:57:06;;;;;;;9.90;1.95;;;27.60;99.90;;;;;;5072401;28;20088;-67
2022/01/02 04:59:33;;;;;;;12.57;1.95;;;27.50;99.90;;;;;;5072344;28;20009;-66
2022/01/02 05:02:00;;;;;;;11.65;2.13;;;27.60;99.90;;;;;;5072443;28;20009;-66
2022/01/02 05:04:28;;;;;;;12.10;2.08;;;27.70;99.90;;;;;;5072937;28;20032;-66
2022/01/02 05:06:55;;;;;;;8.95;2.10;;;27.80;99.90;;;;;;5071204;28;21238;-67
2022/01/02 05:09:22;;;;;;;12.23;2.10;;;27.50;99.90;;;;;;5071006;28;20033;-65
2022/01/02 05:11:51;;;;;;;7.95;1.70;;;27.40;99.90;;;;;;5070415;28;20024;-66
2022/01/02 05:14:19;;;;;;;8.70;1.83;;;27.30;99.90;;;;;;5065947;28;20033;-66
2022/01/02 05:16:46;;;;;;;12.60;2.05;;;27.40;99.90;;;;;;5072119;28;20084;-64
2022/01/02 05:19:14;;;;;;;12.48;2.25;;;27.20;99.90;;;;;;5071701;28;20021;-66
2022/01/02 05:21:42;;;;;;;10.00;2.60;;;27.30;99.90;;;;;;5072803;28;20021;-66
2022/01/02 05:24:09;;;;;;;10.43;1.75;;;27.20;99.90;;;;;;5069354;28;20105;-65
2022/01/02 05:26:37;;;;;;;13.13;2.33;;;27.30;99.90;;;;;;5071277;28;20025;-65
2022/01/02 05:29:05;;;;;;;13.35;2.92;;;27.30;99.90;;;;;;5068247;28;20051;-64
2022/01/02 05:31:32;;;;;;;9.20;2.10;;;27.10;99.90;;;;;;5072659;28;20021;-64
2022/01/02 05:34:00;;;;;;;10.85;1.90;;;27.20;99.90;;;;;;5071064;28;20116;-65
2022/01/02 05:36:27;;;;;;;11.82;1.50;;;27.10;99.90;;;;;;5069824;28;20032;-67
2022/01/02 05:38:54;;;;;;;11.40;1.92;;;26.90;99.90;;;;;;5069754;28;20009;-66
2022/01/02 05:41:22;;;;;;;9.32;1.48;;;26.90;99.90;;;;;;5064835;28;20102;-66
2022/01/02 05:43:49;;;;;;;15.55;2.60;;;27.00;99.90;;;;;;5064696;28;20028;-66
2022/01/02 05:46:17;;;;;;;12.32;2.50;;;27.10;99.90;;;;;;5067547;28;20021;-67
2022/01/02 05:48:44;;;;;;;12.20;2.40;;;27.30;99.90;;;;;;5073181;28;20009;-67
2022/01/02 05:51:11;;;;;;;9.95;1.58;;;27.30;99.90;;;;;;5075137;28;20033;-66
2022/01/02 05:53:39;;;;;;;10.88;1.45;;;27.50;99.90;;;;;;5073602;28;20033;-66
2022/01/02 05:56:07;;;;;;;12.32;1.70;;;27.50;99.90;;;;;;5070065;28;20044;-66
2022/01/02 05:58:34;;;;;;;10.45;2.05;;;27.20;99.90;;;;;;5071321;28;20654;-67
2022/01/02 06:01:02;;;;;;;8.32;1.73;;;27.30;99.90;;;;;;5059852;28;20057;-66
2022/01/02 06:03:29;;;;;;;10.02;1.48;;;27.00;99.90;;;;;;5065572;28;20083;-66
2022/01/02 06:05:56;;;;;;;13.60;2.00;;;27.00;99.90;;;;;;5068183;28;20033;-67
2022/01/02 06:08:23;;;;;;;12.80;1.40;;;27.00;99.90;;;;;;5064727;28;20034;-66
2022/01/02 06:10:51;;;;;;;10.57;1.77;;;27.00;99.90;;;;;;5060741;28;20037;-66
2022/01/02 06:13:18;;;;;;;10.50;1.42;;;27.00;99.90;;;;;;5068227;28;20025;-66
2022/01/02 06:15:45;;;;;;;12.00;1.20;;;27.00;99.90;;;;;;5068959;28;20151;-66
2022/01/02 06:18:13;;;;;;;6.40;1.13;;;27.20;99.90;;;;;;5071363;28;20987;-66
2022/01/02 06:20:40;;;;;;;11.00;1.23;;;27.20;99.90;;;;;;5070628;28;20021;-65
2022/01/02 06:23:07;;;;;;;7.45;1.40;;;27.10;99.90;;;;;;5073101;28;20068;-66
2022/01/02 06:25:34;;;;;;;8.25;2.05;;;27.00;99.90;;;;;;5074405;28;20024;-66
2022/01/02 06:28:02;;;;;;;10.57;1.40;;;27.00;99.90;;;;;;5071532;28;20037;-66
2022/01/02 06:30:30;;;;;;;9.68;1.98;;;27.00;99.90;;;;;;5071116;28;20024;-66
2022/01/02 06:32:57;;;;;;;9.82;1.15;;;27.20;99.90;;;;;;5071299;28;20108;-64
2022/01/02 06:35:31;;;;;;;11.27;1.77;;;27.00;99.90;;;;;;5076071;28;20014;-67
2022/01/02 06:37:59;;;;;;;9.43;1.52;;;27.20;99.90;;;;;;5070706;28;20029;-65
2022/01/02 06:40:27;;;;;;;7.88;1.42;;;27.80;99.90;;;;;;5074829;28;20032;-65
2022/01/02 06:42:54;;;;;;;7.50;1.25;;;28.10;99.90;;;;;;5073546;28;20043;-65
2022/01/02 06:45:22;;;;;;;13.98;2.38;;;28.70;99.90;;;;;;5074467;28;20044;-65
2022/01/02 06:47:49;;;;;;;8.90;1.45;;;28.30;99.90;;;;;;5067589;28;20047;-65
2022/01/02 06:50:16;;;;;;;10.63;2.20;;;28.60;99.90;;;;;;5072336;28;20037;-65
2022/01/02 06:52:43;;;;;;;11.65;2.13;;;28.40;99.90;;;;;;5073012;28;20087;-65
2022/01/02 06:55:11;;;;;;;11.80;2.33;;;28.30;99.90;;;;;;5064706;28;20037;-65
2022/01/02 06:57:38;;;;;;;13.57;2.03;;;27.80;99.90;;;;;;5065712;28;20306;-65
2022/01/02 07:00:07;;;;;;;10.60;1.55;;;27.50;99.90;;;;;;5075056;28;20093;-65
2022/01/02 07:02:35;;;;;;;10.30;2.10;;;27.10;99.90;;;;;;5063103;28;20052;-64
2022/01/02 07:05:02;;;;;;;23.23;2.88;;;26.80;99.90;;;;;;5069257;28;20028;-66
2022/01/02 07:07:29;;;;;;;13.60;2.53;;;26.50;99.90;;;;;;5073245;28;20086;-66
2022/01/02 07:09:56;;;;;;;15.50;2.75;;;26.30;99.90;;;;;;5062386;28;20010;-64
2022/01/02 07:12:24;;;;;;;10.90;1.80;;;26.20;99.90;;;;;;5073451;28;20013;-65
2022/01/02 07:14:52;;;;;;;13.85;2.72;;;26.60;99.90;;;;;;5075155;28;20032;-62
2022/01/02 07:17:19;;;;;;;11.65;2.40;;;26.50;99.90;;;;;;5074932;28;20017;-64
2022/01/02 07:19:46;;;;;;;8.68;1.98;;;26.40;99.90;;;;;;5076904;28;20053;-64
2022/01/02 07:22:13;;;;;;;10.57;1.52;;;26.10;99.90;;;;;;5074195;28;20028;-64
2022/01/02 07:24:41;;;;;;;14.82;2.70;;;26.40;99.90;;;;;;5075604;28;20032;-64
2022/01/02 07:27:08;;;;;;;11.27;2.15;;;27.20;99.90;;;;;;5074547;28;20033;-63
2022/01/02 07:29:36;;;;;;;15.15;2.40;;;27.70;99.90;;;;;;5077201;28;20041;-67
2022/01/02 07:32:03;;;;;;;15.38;2.50;;;27.60;99.90;;;;;;5075460;28;20009;-65
2022/01/02 07:34:31;;;;;;;18.27;2.78;;;26.80;99.90;;;;;;5077665;28;20029;-67
2022/01/02 07:36:58;;;;;;;15.88;2.30;;;26.30;99.90;;;;;;5075312;28;20033;-64
2022/01/02 07:39:25;;;;;;;12.60;1.80;;;26.30;99.90;;;;;;5076400;28;20029;-65
2022/01/02 07:41:52;;;;;;;7.40;1.60;;;25.90;99.90;;;;;;5075172;28;20032;-66
2022/01/02 07:44:20;;;;;;;14.27;2.30;;;25.70;99.90;;;;;;5070676;28;20061;-67
2022/01/02 07:46:47;;;;;;;19.20;2.90;;;25.70;99.90;;;;;;5075013;28;20092;-66
2022/01/02 07:49:14;;;;;;;14.68;2.13;;;25.80;99.90;;;;;;5073402;28;20089;-66
2022/01/02 07:51:41;;;;;;;18.48;2.85;;;25.70;99.90;;;;;;5063523;28;20080;-68
2022/01/02 07:54:12;;;;;;;10.98;2.42;;;25.80;99.90;;;;;;5075481;28;20029;-66
2022/01/02 07:56:40;;;;;;;15.93;2.38;;;26.00;99.90;;;;;;5074375;28;20009;-65
2022/01/02 07:59:08;;;;;;;8.18;1.65;;;25.80;99.90;;;;;;5076408;28;20055;-65
2022/01/02 08:01:35;;;;;;;13.90;2.90;;;25.40;99.90;;;;;;5074544;28;20019;-66
2022/01/02 08:04:03;;;;;;;14.30;2.15;;;25.10;99.90;;;;;;5074819;28;20038;-66
2022/01/02 08:06:30;;;;;;;11.23;1.83;;;25.00;99.90;;;;;;5070607;28;20025;-65
2022/01/02 08:08:57;;;;;;;18.30;2.83;;;25.00;99.90;;;;;;5077001;28;20017;-65
2022/01/02 08:11:25;;;;;;;12.73;1.70;;;25.00;99.90;;;;;;5069700;28;20040;-65
2022/01/02 08:13:52;;;;;;;13.05;2.15;;;24.90;99.90;;;;;;5076329;28;20016;-64
2022/01/02 08:16:19;;;;;;;13.88;2.30;;;24.90;99.90;;;;;;5071460;28;20081;-65
2022/01/02 08:18:46;;;;;;;11.27;2.85;;;24.90;99.90;;;;;;5075635;28;20017;-65
2022/01/02 08:21:14;;;;;;;8.57;2.10;;;24.80;99.90;;;;;;5071710;28;20025;-66
2022/01/02 08:23:41;;;;;;;12.05;1.90;;;24.80;99.90;;;;;;5074513;28;20028;-64
2022/01/02 08:26:08;;;;;;;14.32;2.05;;;24.70;99.90;;;;;;5075145;28;20013;-65
2022/01/02 08:28:36;;;;;;;15.32;2.28;;;24.70;99.90;;;;;;5069418;28;20059;-65
2022/01/02 08:31:03;;;;;;;12.93;1.92;;;24.60;99.90;;;;;;5073056;28;20032;-66
2022/01/02 08:33:31;;;;;;;19.42;4.20;;;24.50;99.90;;;;;;5068088;28;20020;-65
2022/01/02 08:35:58;;;;;;;21.05;2.88;;;24.50;99.90;;;;;;5072979;28;20035;-66
2022/01/02 08:38:27;;;;;;;13.95;2.35;;;24.50;99.90;;;;;;5077520;28;20021;-64
2022/01/02 08:40:55;;;;;;;15.85;2.85;;;24.30;99.90;;;;;;5070837;28;20063;-64
2022/01/02 08:43:22;;;;;;;13.70;2.17;;;24.30;99.90;;;;;;5065606;28;20073;-64
2022/01/02 08:45:49;;;;;;;14.93;2.45;;;24.20;99.90;;;;;;5075348;28;20009;-64
2022/01/02 08:48:19;;;;;;;16.50;2.08;;;24.20;99.90;;;;;;5076719;28;20033;-64
2022/01/02 08:50:46;;;;;;;12.80;2.95;;;24.20;99.90;;;;;;5077238;28;20016;-63
2022/01/02 08:53:14;;;;;;;16.73;1.73;;;24.20;99.90;;;;;;5076777;28;20025;-65
2022/01/02 08:55:41;;;;;;;14.15;3.33;;;24.20;99.90;;;;;;5064321;28;20041;-65
2022/01/02 08:58:09;;;;;;;10.35;2.22;;;24.20;99.90;;;;;;5065181;28;20076;-64
2022/01/02 09:00:37;;;;;;;14.65;2.05;;;24.20;99.90;;;;;;5063429;28;20040;-65
2022/01/02 09:03:06;;;;;;;10.88;1.90;;;24.10;99.90;;;;;;5058058;28;20046;-66
2022/01/02 09:05:34;;;;;;;13.10;2.28;;;24.10;99.90;;;;;;5062475;28;20018;-64
2022/01/02 09:08:04;;;;;;;16.58;2.08;;;24.10;99.90;;;;;;5072360;28;20025;-64
2022/01/02 09:10:32;;;;;;;14.23;2.45;;;24.00;99.90;;;;;;5073037;28;20033;-64
2022/01/02 09:12:59;;;;;;;17.20;2.13;;;24.00;99.90;;;;;;5077153;28;20029;-64
2022/01/02 09:15:26;;;;;;;17.25;2.53;;;24.00;99.90;;;;;;5071860;28;20009;-64
2022/01/02 09:17:54;;;;;;;12.45;2.33;;;23.90;99.90;;;;;;5077153;28;20005;-64
2022/01/02 09:20:21;;;;;;;18.95;2.95;;;23.90;99.90;;;;;;5076554;28;20047;-64
2022/01/02 09:22:49;;;;;;;15.70;3.05;;;23.90;99.90;;;;;;5074592;28;20604;-66
2022/01/02 09:25:16;;;;;;;15.95;2.33;;;23.90;99.90;;;;;;5076743;28;20136;-66
2022/01/02 09:27:44;;;;;;;16.30;2.30;;;23.90;99.90;;;;;;5067846;28;20029;-65
2022/01/02 09:30:12;;;;;;;12.63;2.83;;;23.90;99.90;;;;;;5070295;28;20033;-64
2022/01/02 09:32:40;;;;;;;13.65;2.38;;;23.90;99.90;;;;;;5074036;28;20029;-65
2022/01/02 09:35:09;;;;;;;13.85;2.70;;;23.80;99.90;;;;;;5075360;28;20013;-66
2022/01/02 09:37:37;;;;;;;9.60;1.98;;;23.80;99.90;;;;;;5064809;28;20046;-65
2022/01/02 09:40:07;;;;;;;16.13;2.60;;;23.80;99.90;;;;;;5065848;28;20036;-64
2022/01/02 09:42:37;;;;;;;17.52;2.75;;;23.80;99.90;;;;;;5073695;28;20033;-66
2022/01/02 09:45:06;;;;;;;10.70;2.28;;;23.70;99.90;;;;;;5069885;28;20033;-65
2022/01/02 09:47:37;;;;;;;15.90;2.38;;;23.80;99.90;;;;;;5075413;28;20040;-66
2022/01/02 09:50:07;;;;;;;15.98;2.40;;;23.70;99.90;;;;;;5072892;28;20036;-64
2022/01/02 09:52:35;;;;;;;12.27;2.38;;;23.70;99.90;;;;;;5058888;28;20025;-65
2022/01/02 09:55:03;;;;;;;18.52;2.70;;;23.80;99.90;;;;;;5062773;28;20006;-64
2022/01/02 09:57:30;;;;;;;16.27;3.25;;;23.70;99.90;;;;;;5078762;28;20024;-65
2022/01/02 09:59:58;;;;;;;18.63;2.42;;;23.70;99.90;;;;;;5066054;28;20028;-65
2022/01/02 10:02:25;;;;;;;14.27;3.30;;;23.70;99.90;;;;;;5064569;28;20021;-65
2022/01/02 10:05:02;;;;;;;22.55;3.72;;;23.60;99.90;;;;;;5062842;28;20041;-64
2022/01/02 10:07:34;;;;;;;17.85;2.42;;;23.60;99.90;;;;;;5064082;28;20014;-63
2022/01/02 10:10:11;;;;;;;15.43;3.38;;;23.60;99.90;;;;;;5080594;28;20021;-64
2022/01/02 10:12:39;;;;;;;18.95;2.80;;;23.60;99.90;;;;;;5078228;28;20025;-64
2022/01/02 10:15:20;;;;;;;14.10;1.88;;;23.50;99.90;;;;;;5078620;28;20057;-64
2022/01/02 10:18:11;;;;;;;15.27;2.50;;;23.50;99.90;;;;;;5078834;28;20072;-64
2022/01/02 10:20:39;;;;;;;14.57;2.80;;;23.60;99.90;;;;;;5074938;28;20041;-65
2022/01/02 10:23:09;;;;;;;14.32;2.70;;;23.50;99.90;;;;;;5077408;28;20033;-65
2022/01/02 10:25:59;;;;;;;15.07;2.08;;;23.50;99.90;;;;;;5078934;28;20021;-65
2022/01/02 10:28:32;;;;;;;17.25;2.53;;;23.50;99.90;;;;;;5078430;28;20035;-64
2022/01/02 10:31:07;;;;;;;14.20;2.42;;;23.50;99.90;;;;;;5075360;28;20009;-65
2022/01/02 10:33:57;;;;;;;13.50;2.47;;;23.50;99.90;;;;;;5060495;28;20040;-65
2022/01/02 10:36:30;;;;;;;14.07;2.22;;;23.40;99.90;;;;;;5078939;28;20052;-64
2022/01/02 10:39:18;;;;;;;15.30;2.50;;;23.40;99.90;;;;;;5077404;28;20021;-65
2022/01/02 10:41:50;;;;;;;15.13;3.08;;;23.50;99.90;;;;;;5077753;28;20097;-65
2022/01/02 10:44:22;;;;;;;16.85;2.88;;;23.40;99.90;;;;;;5077415;28;20020;-64
2022/01/02 10:47:09;;;;;;;18.50;2.17;;;23.40;99.90;;;;;;5078143;28;20037;-65
2022/01/02 10:50:04;;;;;;;12.60;2.15;;;23.40;99.90;;;;;;5095136;28;20013;-64
2022/01/02 10:52:45;;;;;;;17.13;2.28;;;23.40;99.90;;;;;;5075619;28;20037;-65
2022/01/02 10:55:17;;;;;;;13.38;1.67;;;23.40;99.90;;;;;;5069173;28;20001;-66
2022/01/02 10:57:49;;;;;;;13.35;2.13;;;23.40;99.90;;;;;;5071847;28;20026;-66
2022/01/02 11:00:18;;;;;;;16.10;2.63;;;23.30;99.90;;;;;;5073329;28;20045;-67
2022/01/02 11:02:46;;;;;;;15.52;2.58;;;23.30;99.90;;;;;;5067824;28;20020;-67
2022/01/02 11:05:15;;;;;;;14.93;1.77;;;23.30;99.90;;;;;;5070465;28;20061;-65
2022/01/02 11:07:44;;;;;;;19.40;2.42;;;23.40;99.90;;;;;;5071464;28;20075;-66
2022/01/02 11:10:13;;;;;;;11.50;2.10;;;23.30;99.90;;;;;;5072114;28;20021;-67
2022/01/02 11:12:43;;;;;;;12.73;1.90;;;23.30;99.90;;;;;;5074246;28;20092;-66
2022/01/02 11:15:21;;;;;;;13.48;2.53;;;23.30;99.90;;;;;;5071729;28;20381;-67
2022/01/02 11:17:49;;;;;;;15.98;1.92;;;23.30;99.90;;;;;;5071563;28;20009;-67
2022/01/02 11:20:31;;;;;;;15.27;2.22;;;23.30;99.90;;;;;;5069954;28;20044;-66
2022/01/02 11:23:38;;;;;;;16.15;3.47;;;23.30;99.90;;;;;;5071814;28;20028;-66
2022/01/02 11:26:45;;;;;;;15.45;2.47;;;23.20;99.90;;;;;;5058960;28;20054;-67
2022/01/02 11:29:13;;;;;;;13.68;2.28;;;23.30;99.90;;;;;;5043011;28;20039;-68
2022/01/02 11:31:43;;;;;;;11.48;1.58;;;23.20;99.90;;;;;;5069951;28;20032;-65
2022/01/02 11:34:28;;;;;;;23.08;3.70;;;23.20;99.90;;;;;;5069918;28;20109;-65
2022/01/02 11:37:25;;;;;;;12.95;1.95;;;23.20;99.90;;;;;;5072217;28;20029;-66
2022/01/02 11:39:57;;;;;;;17.52;2.95;;;23.20;99.90;;;;;;5073239;28;20381;-67
2022/01/02 11:42:42;;;;;;;16.73;2.00;;;23.30;99.90;;;;;;5070709;28;20012;-66
2022/01/02 11:45:31;;;;;;;13.85;2.03;;;23.20;99.90;;;;;;5071144;28;20035;-66
2022/01/02 11:48:00;;;;;;;19.23;2.70;;;23.20;99.90;;;;;;5059558;28;20096;-66
2022/01/02 11:50:36;;;;;;;16.17;2.28;;;23.30;99.90;;;;;;5072884;28;20017;-66
2022/01/02 11:53:23;;;;;;;15.85;2.42;;;23.20;99.90;;;;;;5073257;28;20021;-65
2022/01/02 11:55:52;;;;;;;19.00;3.28;;;23.20;99.90;;;;;;5066912;28;20029;-66
2022/01/02 11:58:42;;;;;;;19.17;2.50;;;23.10;99.90;;;;;;5065572;28;20037;-66
2022/01/02 12:01:09;;;;;;;15.57;2.22;;;23.10;99.90;;;;;;5074017;28;20013;-65
2022/01/02 12:03:39;;;;;;;14.32;1.60;;;23.20;99.90;;;;;;5076365;28;20025;-66
2022/01/02 12:06:32;;;;;;;17.27;2.58;;;23.20;99.90;;;;;;5074107;28;20009;-65
2022/01/02 12:09:00;;;;;;;22.58;2.92;;;23.10;99.90;;;;;;5075500;28;20033;-64
2022/01/02 12:11:40;;;;;;;14.70;3.17;;;23.10;99.90;;;;;;5075324;28;20009;-66
2022/01/02 12:14:09;;;;;;;15.07;1.98;;;23.10;99.90;;;;;;5074154;28;20044;-67
2022/01/02 12:16:42;;;;;;;27.33;3.63;;;23.10;99.90;;;;;;5073891;28;20041;-66
2022/01/02 12:19:10;;;;;;;21.33;2.70;;;23.10;99.90;;;;;;5056744;28;20032;-65
2022/01/02 12:21:57;;;;;;;20.45;3.05;;;23.10;99.90;;;;;;5073106;28;20074;-65
2022/01/02 12:24:30;;;;;;;14.63;2.33;;;23.10;99.90;;;;;;5073819;28;20045;-65
2022/01/02 12:27:12;;;;;;;21.95;3.42;;;23.10;99.90;;;;;;5076014;28;20072;-65
2022/01/02 12:29:40;;;;;;;23.75;2.75;;;23.10;99.90;;;;;;5076430;28;20080;-65
2022/01/02 12:32:08;;;;;;;16.65;2.55;;;23.10;99.90;;;;;;5075287;28;20103;-66
2022/01/02 12:34:36;;;;;;;16.08;2.42;;;23.10;99.90;;;;;;5073511;28;20037;-65
2022/01/02 12:37:04;;;;;;;21.30;2.53;;;23.10;99.90;;;;;;5075306;28;20068;-65
2022/01/02 12:39:40;;;;;;;21.80;2.55;;;23.10;99.90;;;;;;5072884;28;20025;-65
2022/01/02 12:42:14;;;;;;;19.75;2.28;;;23.10;99.90;;;;;;5072667;28;20025;-65
2022/01/02 12:44:43;;;;;;;21.85;2.75;;;23.10;99.90;;;;;;5072968;28;20056;-65
2022/01/02 12:47:12;;;;;;;19.98;3.00;;;23.10;99.90;;;;;;5072126;28;20067;-65
2022/01/02 12:49:43;;;;;;;13.95;2.17;;;23.10;99.90;;;;;;5073857;28;20025;-65
2022/01/02 12:52:17;;;;;;;14.13;2.65;;;23.10;99.90;;;;;;5069147;28;20089;-65
2022/01/02 12:54:54;;;;;;;22.50;2.75;;;23.10;99.90;;;;;;5075029;28;20033;-65
2022/01/02 12:57:23;;;;;;;20.38;3.78;;;23.00;99.90;;;;;;5074676;28;20028;-65
2022/01/02 12:59:55;;;;;;;15.90;2.35;;;23.10;99.90;;;;;;5074558;28;20044;-65
2022/01/02 13:02:30;;;;;;;14.43;3.00;;;23.00;99.90;;;;;;5073801;28;20045;-65
2022/01/02 13:05:03;;;;;;;15.80;2.47;;;23.10;99.90;;;;;;5073185;28;20063;-65